createdAt,value
2023-03-01T00:00:01.788Z,-3.31
2023-03-01T00:01:06.321Z,-3.32
2023-03-01T00:02:08.721Z,-3.32
2023-03-01T00:03:10.997Z,-3.32
2023-03-01T00:04:13.340Z,-3.33
2023-03-01T00:05:15.532Z,-3.34
2023-03-01T00:06:17.961Z,-3.34
2023-03-01T00:07:20.231Z,-3.35
2023-03-01T00:08:22.437Z,-3.35
2023-03-01T00:09:24.718Z,-3.37
2023-03-01T00:10:27.715Z,-3.39
2023-03-01T00:11:34.629Z,-3.39
2023-03-01T00:12:37.644Z,-3.40
2023-03-01T00:13:40.265Z,-3.41
2023-03-01T00:14:42.451Z,-3.42
2023-03-01T00:15:45.548Z,-3.43
2023-03-01T00:16:47.910Z,-3.44
2023-03-01T00:17:50.056Z,-3.45
2023-03-01T00:18:52.406Z,-3.45
2023-03-01T00:19:54.568Z,-3.47
2023-03-01T00:20:57.287Z,-3.47
2023-03-01T00:21:59.587Z,-3.48
2023-03-01T00:23:01.840Z,-3.50
2023-03-01T00:24:06.769Z,-3.51
2023-03-01T00:25:09.235Z,-3.52
2023-03-01T00:26:14.996Z,-3.55
2023-03-01T00:27:17.530Z,-3.58
2023-03-01T00:28:20.372Z,-3.58
2023-03-01T00:29:24.544Z,-3.60
2023-03-01T00:30:27.438Z,-3.61
2023-03-01T00:31:33.563Z,-3.62
2023-03-01T00:32:35.826Z,-3.64
2023-03-01T00:33:38.418Z,-3.65
2023-03-01T00:34:41.022Z,-3.67
2023-03-01T00:35:43.467Z,-3.68
2023-03-01T00:36:46.275Z,-3.68
2023-03-01T00:37:58.974Z,-3.71
2023-03-01T00:39:02.936Z,-3.71
2023-03-01T00:40:07.302Z,-3.73
2023-03-01T00:41:13.107Z,-3.72
2023-03-01T00:42:15.387Z,-3.74
2023-03-01T00:43:17.933Z,-3.75
2023-03-01T00:44:20.138Z,-3.76
2023-03-01T00:45:23.025Z,-3.76
2023-03-01T00:46:28.036Z,-3.78
2023-03-01T00:47:30.733Z,-3.79
2023-03-01T00:48:33.274Z,-3.80
2023-03-01T00:49:36.854Z,-3.81
2023-03-01T00:50:39.153Z,-3.82
2023-03-01T00:51:42.539Z,-3.82
2023-03-01T00:52:44.979Z,-3.84
2023-03-01T00:53:47.529Z,-3.85
2023-03-01T00:54:51.059Z,-3.87
2023-03-01T00:55:53.198Z,-3.86
2023-03-01T00:56:55.387Z,-3.87
2023-03-01T00:57:57.632Z,-3.88
2023-03-01T00:58:59.880Z,-3.88
2023-03-01T01:00:02.158Z,-3.88
2023-03-01T01:01:18.420Z,-3.90
2023-03-01T01:02:21.407Z,-3.91
2023-03-01T01:03:26.201Z,-3.91
2023-03-01T01:04:28.819Z,-3.92
2023-03-01T01:05:31.887Z,-3.92
2023-03-01T01:06:43.938Z,-3.93
2023-03-01T01:07:46.142Z,-3.93
2023-03-01T01:08:49.534Z,-3.96
2023-03-01T01:09:52.068Z,-3.96
2023-03-01T01:10:55.709Z,-3.97
2023-03-01T01:11:57.953Z,-3.98
2023-03-01T01:13:02.764Z,-3.99
2023-03-01T01:14:05.017Z,-4.00
2023-03-01T01:15:07.781Z,-3.99
2023-03-01T01:16:10.343Z,-4.01
2023-03-01T01:17:13.708Z,-4.01
2023-03-01T01:18:16.453Z,-4.02
2023-03-01T01:19:18.650Z,-4.03
2023-03-01T01:20:20.807Z,-4.05
2023-03-01T01:21:26.140Z,-4.05
2023-03-01T01:22:28.962Z,-4.05
2023-03-01T01:23:32.554Z,-4.06
2023-03-01T01:24:34.796Z,-4.09
2023-03-01T01:25:37.966Z,-4.09
2023-03-01T01:26:40.137Z,-4.09
2023-03-01T01:27:42.325Z,-4.10
2023-03-01T01:28:45.248Z,-4.10
2023-03-01T01:29:48.547Z,-4.12
2023-03-01T01:30:50.740Z,-4.12
2023-03-01T01:31:53.079Z,-4.14
2023-03-01T01:32:56.018Z,-4.13
2023-03-01T01:34:00.538Z,-4.13
2023-03-01T01:35:02.792Z,-4.13
2023-03-01T01:36:06.642Z,-4.14
2023-03-01T01:37:10.204Z,-4.15
2023-03-01T01:38:12.521Z,-4.15
2023-03-01T01:39:14.746Z,-4.16
2023-03-01T01:40:19.602Z,-4.16
2023-03-01T01:41:23.370Z,-4.17
2023-03-01T01:42:25.627Z,-4.17
2023-03-01T01:43:32.501Z,-4.17
2023-03-01T01:44:34.950Z,-4.18
2023-03-01T01:45:37.755Z,-4.19
2023-03-01T01:47:05.147Z,-4.20
2023-03-01T01:48:41.354Z,-4.23
2023-03-01T01:49:48.569Z,-4.24
2023-03-01T01:51:03.908Z,-4.24
2023-03-01T01:52:10.647Z,-4.27
2023-03-01T01:53:17.491Z,-4.27
2023-03-01T01:54:25.032Z,-4.28
2023-03-01T01:55:31.653Z,-4.29
2023-03-01T01:56:38.085Z,-4.30
2023-03-01T01:57:48.465Z,-4.31
2023-03-01T01:58:51.365Z,-4.33
2023-03-01T01:59:59.247Z,-4.33
2023-03-01T02:01:02.773Z,-4.35
2023-03-01T02:02:06.469Z,-4.36
2023-03-01T02:03:18.490Z,-4.38
2023-03-01T02:04:22.072Z,-4.40
2023-03-01T02:05:36.384Z,-4.39
2023-03-01T02:06:45.885Z,-4.41
2023-03-01T02:07:49.373Z,-4.43
2023-03-01T02:09:03.042Z,-4.43
2023-03-01T02:10:06.199Z,-4.43
2023-03-01T02:11:09.868Z,-4.45
2023-03-01T02:12:13.904Z,-4.46
2023-03-01T02:13:16.572Z,-4.47
2023-03-01T02:14:19.469Z,-4.48
2023-03-01T02:15:21.691Z,-4.50
2023-03-01T02:16:24.708Z,-4.50
2023-03-01T02:17:28.112Z,-4.50
2023-03-01T02:18:30.809Z,-4.53
2023-03-01T02:20:02.311Z,-4.51
2023-03-01T02:21:39.551Z,-4.55
2023-03-01T02:22:46.106Z,-4.56
2023-03-01T02:23:48.465Z,-4.57
2023-03-01T02:25:09.818Z,-4.57
2023-03-01T02:26:43.878Z,-4.60
2023-03-01T02:28:19.471Z,-4.60
2023-03-01T02:29:24.150Z,-4.62
2023-03-01T02:30:26.920Z,-4.62
2023-03-01T02:31:44.105Z,-4.63
2023-03-01T02:32:49.448Z,-4.64
2023-03-01T02:33:54.226Z,-4.65
2023-03-01T02:34:57.452Z,-4.66
2023-03-01T02:36:09.451Z,-4.67
2023-03-01T02:37:21.638Z,-4.68
2023-03-01T02:38:24.912Z,-4.71
2023-03-01T02:39:38.057Z,-4.70
2023-03-01T02:40:41.858Z,-4.71
2023-03-01T02:41:49.036Z,-4.71
2023-03-01T02:42:55.736Z,-4.72
2023-03-01T02:43:58.128Z,-4.72
2023-03-01T02:45:00.330Z,-4.73
2023-03-01T02:46:15.726Z,-4.73
2023-03-01T02:47:18.436Z,-4.74
2023-03-01T02:48:21.152Z,-4.75
2023-03-01T02:49:31.623Z,-4.75
2023-03-01T02:51:06.986Z,-4.75
2023-03-01T02:52:51.011Z,-4.76
2023-03-01T02:54:29.291Z,-4.78
2023-03-01T02:55:31.598Z,-4.79
2023-03-01T02:56:33.983Z,-4.80
2023-03-01T02:57:39.442Z,-4.80
2023-03-01T02:58:46.770Z,-4.82
2023-03-01T02:59:52.466Z,-4.82
2023-03-01T03:00:55.107Z,-4.83
2023-03-01T03:01:57.877Z,-4.83
2023-03-01T03:03:00.443Z,-4.84
2023-03-01T03:04:08.591Z,-4.85
2023-03-01T03:05:15.045Z,-4.86
2023-03-01T03:06:17.722Z,-4.85
2023-03-01T03:07:20.146Z,-4.87
2023-03-01T03:08:27.457Z,-4.89
2023-03-01T03:09:29.676Z,-4.90
2023-03-01T03:10:36.453Z,-4.90
2023-03-01T03:11:41.982Z,-4.90
2023-03-01T03:12:44.377Z,-4.90
2023-03-01T03:13:49.196Z,-4.90
2023-03-01T03:14:52.248Z,-4.91
2023-03-01T03:15:57.024Z,-4.90
2023-03-01T03:16:59.346Z,-4.91
2023-03-01T03:18:01.627Z,-4.92
2023-03-01T03:19:06.389Z,-4.93
2023-03-01T03:20:13.661Z,-4.94
2023-03-01T03:21:16.402Z,-4.96
2023-03-01T03:22:18.712Z,-4.96
2023-03-01T03:23:22.524Z,-4.96
2023-03-01T03:24:24.747Z,-4.95
2023-03-01T03:25:28.603Z,-4.96
2023-03-01T03:26:31.340Z,-4.96
2023-03-01T03:27:33.655Z,-4.98
2023-03-01T03:28:36.378Z,-4.98
2023-03-01T03:29:38.576Z,-4.98
2023-03-01T03:30:41.967Z,-4.99
2023-03-01T03:31:44.250Z,-5.01
2023-03-01T03:32:53.388Z,-5.01
2023-03-01T03:33:55.804Z,-5.00
2023-03-01T03:34:57.935Z,-5.03
2023-03-01T03:36:00.217Z,-5.03
2023-03-01T03:37:02.419Z,-5.04
2023-03-01T03:38:12.617Z,-5.05
2023-03-01T03:39:14.792Z,-5.06
2023-03-01T03:40:18.442Z,-5.07
2023-03-01T03:41:21.421Z,-5.06
2023-03-01T03:42:24.833Z,-5.07
2023-03-01T03:43:27.038Z,-5.09
2023-03-01T03:44:29.438Z,-5.10
2023-03-01T03:45:34.603Z,-5.11
2023-03-01T03:46:38.673Z,-5.11
2023-03-01T03:47:40.789Z,-5.13
2023-03-01T03:48:45.311Z,-5.14
2023-03-01T03:49:47.531Z,-5.15
2023-03-01T03:50:56.349Z,-5.15
2023-03-01T03:51:58.599Z,-5.18
2023-03-01T03:53:05.760Z,-5.18
2023-03-01T03:54:07.963Z,-5.20
2023-03-01T03:55:12.858Z,-5.21
2023-03-01T03:56:16.408Z,-5.20
2023-03-01T03:57:18.629Z,-5.23
2023-03-01T03:58:23.277Z,-5.23
2023-03-01T03:59:25.573Z,-5.23
2023-03-01T04:00:27.830Z,-5.24
2023-03-01T04:01:30.056Z,-5.24
2023-03-01T04:02:32.704Z,-5.26
2023-03-01T04:03:36.309Z,-5.26
2023-03-01T04:04:38.585Z,-5.28
2023-03-01T04:05:41.916Z,-5.29
2023-03-01T04:06:44.098Z,-5.29
2023-03-01T04:07:46.712Z,-5.30
2023-03-01T04:08:52.166Z,-5.31
2023-03-01T04:09:54.306Z,-5.32
2023-03-01T04:11:21.778Z,-5.32
2023-03-01T04:12:24.235Z,-5.34
2023-03-01T04:13:26.587Z,-5.34
2023-03-01T04:14:28.836Z,-5.37
2023-03-01T04:15:32.028Z,-5.36
2023-03-01T04:16:34.462Z,-5.37
2023-03-01T04:17:39.849Z,-5.38
2023-03-01T04:18:42.087Z,-5.39
2023-03-01T04:19:45.178Z,-5.40
2023-03-01T04:20:49.633Z,-5.41
2023-03-01T04:21:53.169Z,-5.42
2023-03-01T04:23:21.238Z,-5.42
2023-03-01T04:24:24.024Z,-5.44
2023-03-01T04:25:26.551Z,-5.43
2023-03-01T04:26:29.345Z,-5.45
2023-03-01T04:27:31.708Z,-5.46
2023-03-01T04:28:37.624Z,-5.45
2023-03-01T04:29:40.384Z,-5.47
2023-03-01T04:30:42.614Z,-5.48
2023-03-01T04:31:49.231Z,-5.47
2023-03-01T04:32:51.519Z,-5.48
2023-03-01T04:33:58.760Z,-5.48
2023-03-01T04:35:01.644Z,-5.50
2023-03-01T04:36:06.490Z,-5.49
2023-03-01T04:37:12.410Z,-5.50
2023-03-01T04:38:14.585Z,-5.53
2023-03-01T04:39:17.547Z,-5.51
2023-03-01T04:40:19.871Z,-5.51
2023-03-01T04:41:23.969Z,-5.51
2023-03-01T04:42:26.234Z,-5.53
2023-03-01T04:43:28.494Z,-5.52
2023-03-01T04:44:31.974Z,-5.53
2023-03-01T04:45:35.531Z,-5.53
2023-03-01T04:46:38.119Z,-5.54
2023-03-01T04:47:41.918Z,-5.54
2023-03-01T04:48:46.189Z,-5.55
2023-03-01T04:49:48.366Z,-5.56
2023-03-01T04:50:50.826Z,-5.57
2023-03-01T04:51:53.042Z,-5.58
2023-03-01T04:53:01.040Z,-5.58
2023-03-01T04:54:03.303Z,-5.58
2023-03-01T04:55:07.130Z,-5.59
2023-03-01T04:56:09.736Z,-5.59
2023-03-01T04:57:11.944Z,-5.60
2023-03-01T04:58:14.153Z,-5.60
2023-03-01T04:59:16.782Z,-5.61
2023-03-01T05:00:39.365Z,-5.61
2023-03-01T05:01:43.986Z,-5.63
2023-03-01T05:02:55.545Z,-5.62
2023-03-01T05:04:04.279Z,-5.64
2023-03-01T05:05:06.967Z,-5.64
2023-03-01T05:06:09.206Z,-5.64
2023-03-01T05:07:14.128Z,-5.65
2023-03-01T05:08:19.793Z,-5.65
2023-03-01T05:09:23.229Z,-5.66
2023-03-01T05:10:26.983Z,-5.67
2023-03-01T05:11:32.945Z,-5.68
2023-03-01T05:12:35.198Z,-5.69
2023-03-01T05:13:39.084Z,-5.70
2023-03-01T05:14:41.900Z,-5.71
2023-03-01T05:15:44.118Z,-5.72
2023-03-01T05:16:46.339Z,-5.73
2023-03-01T05:17:49.955Z,-5.74
2023-03-01T05:18:52.095Z,-5.74
2023-03-01T05:19:56.646Z,-5.75
2023-03-01T05:21:11.741Z,-5.75
2023-03-01T05:22:13.889Z,-5.76
2023-03-01T05:23:16.050Z,-5.77
2023-03-01T05:24:18.258Z,-5.77
2023-03-01T05:25:22.520Z,-5.79
2023-03-01T05:26:29.714Z,-5.79
2023-03-01T05:27:32.189Z,-5.81
2023-03-01T05:28:34.895Z,-5.82
2023-03-01T05:29:37.438Z,-5.82
2023-03-01T05:30:40.198Z,-5.84
2023-03-01T05:31:42.373Z,-5.85
2023-03-01T05:32:46.944Z,-5.84
2023-03-01T05:33:49.128Z,-5.84
2023-03-01T05:34:53.305Z,-5.85
2023-03-01T05:35:55.516Z,-5.88
2023-03-01T05:36:58.365Z,-5.87
2023-03-01T05:38:00.608Z,-5.88
2023-03-01T05:39:03.476Z,-5.88
2023-03-01T05:40:06.650Z,-5.89
2023-03-01T05:41:16.001Z,-5.89
2023-03-01T05:42:18.186Z,-5.91
2023-03-01T05:43:20.380Z,-5.91
2023-03-01T05:44:23.008Z,-5.92
2023-03-01T05:45:28.068Z,-5.93
2023-03-01T05:46:30.869Z,-5.94
2023-03-01T05:47:33.322Z,-5.95
2023-03-01T05:48:36.670Z,-5.95
2023-03-01T05:49:39.836Z,-5.97
2023-03-01T05:50:44.425Z,-5.97
2023-03-01T05:51:51.114Z,-5.98
2023-03-01T05:52:59.449Z,-5.98
2023-03-01T05:54:03.496Z,-5.97
2023-03-01T05:55:06.594Z,-5.98
2023-03-01T05:56:08.983Z,-5.98
2023-03-01T05:57:11.542Z,-5.99
2023-03-01T05:58:17.867Z,-5.97
2023-03-01T05:59:20.482Z,-5.98
2023-03-01T06:00:25.665Z,-5.98
2023-03-01T06:01:28.086Z,-5.98
2023-03-01T06:02:31.429Z,-5.98
2023-03-01T06:03:33.933Z,-5.98
2023-03-01T06:04:36.158Z,-5.99
2023-03-01T06:05:38.506Z,-5.98
2023-03-01T06:06:40.750Z,-5.98
2023-03-01T06:07:43.177Z,-5.99
2023-03-01T06:08:45.408Z,-5.99
2023-03-01T06:09:47.667Z,-6.00
2023-03-01T06:10:49.983Z,-5.99
2023-03-01T06:11:52.289Z,-5.99
2023-03-01T06:12:54.876Z,-5.97
2023-03-01T06:13:57.200Z,-5.98
2023-03-01T06:15:00.321Z,-5.98
2023-03-01T06:16:05.916Z,-5.97
2023-03-01T06:17:08.126Z,-5.97
2023-03-01T06:18:10.998Z,-5.96
2023-03-01T06:19:13.187Z,-5.95
2023-03-01T06:20:19.018Z,-5.94
2023-03-01T06:21:21.223Z,-5.92
2023-03-01T06:22:23.480Z,-5.90
2023-03-01T06:23:26.369Z,-5.89
2023-03-01T06:24:29.872Z,-5.88
2023-03-01T06:25:32.075Z,-5.87
2023-03-01T06:26:35.360Z,-5.86
2023-03-01T06:27:37.841Z,-5.84
2023-03-01T06:28:40.022Z,-5.83
2023-03-01T06:29:42.781Z,-5.83
2023-03-01T06:30:45.414Z,-5.82
2023-03-01T06:31:49.633Z,-5.80
2023-03-01T06:32:52.550Z,-5.76
2023-03-01T06:33:55.121Z,-5.75
2023-03-01T06:34:57.345Z,-5.74
2023-03-01T06:35:59.524Z,-5.71
2023-03-01T06:37:06.241Z,-5.68
2023-03-01T06:38:10.318Z,-5.68
2023-03-01T06:39:12.547Z,-5.65
2023-03-01T06:40:16.421Z,-5.63
2023-03-01T06:41:18.670Z,-5.61
2023-03-01T06:42:20.970Z,-5.58
2023-03-01T06:43:25.784Z,-5.56
2023-03-01T06:44:31.080Z,-5.53
2023-03-01T06:45:33.538Z,-5.48
2023-03-01T06:46:35.818Z,-5.47
2023-03-01T06:47:39.190Z,-5.44
2023-03-01T06:48:41.948Z,-5.40
2023-03-01T06:49:44.114Z,-5.37
2023-03-01T06:50:46.291Z,-5.36
2023-03-01T06:51:48.466Z,-5.32
2023-03-01T06:52:56.815Z,-5.27
2023-03-01T06:54:01.314Z,-5.25
2023-03-01T06:55:06.203Z,-5.21
2023-03-01T06:56:08.517Z,-5.17
2023-03-01T06:57:10.687Z,-5.13
2023-03-01T06:58:14.269Z,-5.09
2023-03-01T06:59:17.659Z,-5.04
2023-03-01T07:00:21.323Z,-4.96
2023-03-01T07:01:23.905Z,-4.92
2023-03-01T07:02:26.137Z,-4.82
2023-03-01T07:03:28.608Z,-4.77
2023-03-01T07:04:31.700Z,-4.70
2023-03-01T07:05:34.530Z,-4.61
2023-03-01T07:06:36.799Z,-4.50
2023-03-01T07:07:39.551Z,-4.43
2023-03-01T07:08:41.800Z,-4.32
2023-03-01T07:09:44.037Z,-4.23
2023-03-01T07:10:46.362Z,-4.11
2023-03-01T07:11:48.871Z,-4.00
2023-03-01T07:12:51.076Z,-3.88
2023-03-01T07:13:53.277Z,-3.75
2023-03-01T07:14:55.436Z,-3.63
2023-03-01T07:15:57.613Z,-3.51
2023-03-01T07:17:00.267Z,-3.39
2023-03-01T07:18:02.956Z,-3.27
2023-03-01T07:19:06.408Z,-3.15
2023-03-01T07:20:09.449Z,-3.02
2023-03-01T07:21:14.066Z,-2.89
2023-03-01T07:22:16.282Z,-2.75
2023-03-01T07:23:19.868Z,-2.59
2023-03-01T07:24:22.115Z,-2.46
2023-03-01T07:25:24.340Z,-2.32
2023-03-01T07:26:26.627Z,-2.17
2023-03-01T07:27:28.893Z,-2.02
2023-03-01T07:28:31.923Z,-1.89
2023-03-01T07:29:34.310Z,-1.74
2023-03-01T07:30:36.541Z,-1.59
2023-03-01T07:31:38.856Z,-1.46
2023-03-01T07:32:41.167Z,-1.33
2023-03-01T07:33:43.375Z,-1.18
2023-03-01T07:34:45.691Z,-1.06
2023-03-01T07:35:48.959Z,-0.93
2023-03-01T07:36:52.011Z,-0.80
2023-03-01T07:37:57.506Z,-0.66
2023-03-01T07:38:59.817Z,-0.52
2023-03-01T07:40:02.027Z,-0.41
2023-03-01T07:41:04.929Z,-0.27
2023-03-01T07:42:07.109Z,-0.14
2023-03-01T07:43:09.317Z,-0.01
2023-03-01T07:44:11.915Z,0.11
2023-03-01T07:45:14.650Z,0.22
2023-03-01T07:46:17.290Z,0.35
2023-03-01T07:47:19.472Z,0.47
2023-03-01T07:48:21.754Z,0.60
2023-03-01T07:49:24.046Z,0.73
2023-03-01T07:50:26.260Z,0.84
2023-03-01T07:51:28.411Z,0.95
2023-03-01T07:52:31.861Z,1.07
2023-03-01T07:53:35.275Z,1.20
2023-03-01T07:54:37.528Z,1.31
2023-03-01T07:55:39.707Z,1.43
2023-03-01T07:56:41.907Z,1.53
2023-03-01T07:57:44.345Z,1.64
2023-03-01T07:58:48.697Z,1.76
2023-03-01T07:59:51.950Z,1.88
2023-03-01T08:00:55.095Z,1.97
2023-03-01T08:01:57.971Z,2.09
2023-03-01T08:03:01.957Z,2.18
2023-03-01T08:04:05.847Z,2.28
2023-03-01T08:05:08.457Z,2.40
2023-03-01T08:06:12.896Z,2.50
2023-03-01T08:07:15.452Z,2.60
2023-03-01T08:08:19.521Z,2.71
2023-03-01T08:09:23.067Z,2.81
2023-03-01T08:10:25.380Z,2.91
2023-03-01T08:11:30.726Z,3.01
2023-03-01T08:12:33.350Z,3.12
2023-03-01T08:13:36.996Z,3.21
2023-03-01T08:14:41.185Z,3.30
2023-03-01T08:15:45.453Z,3.39
2023-03-01T08:16:52.826Z,3.48
2023-03-01T08:17:56.281Z,3.57
2023-03-01T08:19:01.709Z,3.66
2023-03-01T08:20:07.519Z,3.78
2023-03-01T08:21:14.407Z,3.89
2023-03-01T08:22:16.955Z,3.98
2023-03-01T08:23:19.176Z,4.08
2023-03-01T08:24:24.036Z,4.17
2023-03-01T08:25:26.255Z,4.25
2023-03-01T08:26:29.487Z,4.32
2023-03-01T08:27:33.371Z,4.41
2023-03-01T08:28:37.166Z,4.48
2023-03-01T08:29:39.277Z,4.57
2023-03-01T08:30:41.482Z,4.66
2023-03-01T08:31:44.185Z,4.74
2023-03-01T08:32:46.573Z,4.81
2023-03-01T08:33:57.043Z,4.89
2023-03-01T08:34:59.344Z,4.97
2023-03-01T08:36:07.971Z,5.07
2023-03-01T08:37:10.887Z,5.14
2023-03-01T08:38:13.102Z,5.23
2023-03-01T08:39:17.781Z,5.33
2023-03-01T08:40:20.023Z,5.38
2023-03-01T08:41:23.889Z,5.45
2023-03-01T08:42:26.102Z,5.50
2023-03-01T08:43:28.446Z,5.57
2023-03-01T08:44:30.663Z,5.65
2023-03-01T08:45:32.964Z,5.72
2023-03-01T08:46:38.657Z,5.78
2023-03-01T08:47:40.908Z,5.84
2023-03-01T08:48:44.343Z,5.92
2023-03-01T08:49:46.509Z,5.96
2023-03-01T08:50:48.719Z,6.04
2023-03-01T08:51:50.917Z,6.10
2023-03-01T08:52:53.070Z,6.14
2023-03-01T08:53:55.251Z,6.18
2023-03-01T08:54:57.966Z,6.21
2023-03-01T08:56:04.220Z,6.27
2023-03-01T08:57:07.947Z,6.31
2023-03-01T08:58:10.121Z,6.37
2023-03-01T08:59:13.460Z,6.43
2023-03-01T09:00:16.120Z,6.48
2023-03-01T09:01:21.175Z,6.52
2023-03-01T09:02:23.793Z,6.54
2023-03-01T09:03:28.383Z,6.61
2023-03-01T09:04:32.332Z,6.67
2023-03-01T09:05:35.395Z,6.73
2023-03-01T09:06:37.691Z,6.76
2023-03-01T09:07:39.918Z,6.83
2023-03-01T09:08:44.769Z,6.88
2023-03-01T09:09:49.444Z,6.91
2023-03-01T09:10:51.716Z,6.95
2023-03-01T09:11:53.929Z,6.99
2023-03-01T09:12:56.100Z,7.03
2023-03-01T09:13:58.342Z,7.06
2023-03-01T09:15:00.639Z,7.08
2023-03-01T09:16:05.644Z,7.12
2023-03-01T09:17:07.925Z,7.14
2023-03-01T09:18:10.360Z,7.19
2023-03-01T09:19:12.652Z,7.23
2023-03-01T09:20:14.964Z,7.26
2023-03-01T09:21:39.158Z,7.30
2023-03-01T09:22:42.317Z,7.34
2023-03-01T09:23:48.740Z,7.37
2023-03-01T09:24:51.142Z,7.39
2023-03-01T09:25:53.912Z,7.42
2023-03-01T09:26:57.279Z,7.44
2023-03-01T09:27:59.407Z,7.47
2023-03-01T09:29:01.627Z,7.52
2023-03-01T09:30:04.149Z,7.53
2023-03-01T09:31:06.837Z,7.56
2023-03-01T09:32:09.454Z,7.60
2023-03-01T09:33:15.645Z,7.63
2023-03-01T09:34:24.188Z,7.69
2023-03-01T09:35:26.384Z,7.75
2023-03-01T09:36:28.801Z,7.79
2023-03-01T09:37:34.353Z,7.84
2023-03-01T09:38:36.903Z,7.86
2023-03-01T09:39:39.045Z,7.89
2023-03-01T09:40:47.321Z,7.94
2023-03-01T09:42:05.607Z,7.99
2023-03-01T09:43:18.627Z,8.04
2023-03-01T09:44:27.316Z,8.10
2023-03-01T09:45:35.339Z,8.14
2023-03-01T09:46:43.426Z,8.18
2023-03-01T09:47:47.592Z,8.23
2023-03-01T09:48:58.474Z,8.28
2023-03-01T09:50:03.673Z,8.32
2023-03-01T09:51:13.771Z,8.38
2023-03-01T09:52:33.065Z,8.46
2023-03-01T09:53:36.333Z,8.48
2023-03-01T09:54:38.703Z,8.50
2023-03-01T09:55:46.941Z,8.55
2023-03-01T09:57:02.174Z,8.63
2023-03-01T09:58:28.842Z,8.68
2023-03-01T09:59:53.968Z,8.70
2023-03-01T10:00:59.986Z,8.77
2023-03-01T10:02:22.742Z,8.79
2023-03-01T10:03:39.455Z,8.82
2023-03-01T10:04:48.358Z,8.85
2023-03-01T10:06:35.051Z,8.87
2023-03-01T10:07:49.071Z,8.88
2023-03-01T10:08:58.901Z,8.91
2023-03-01T10:10:02.294Z,8.92
2023-03-01T10:11:13.881Z,8.94
2023-03-01T10:12:28.844Z,8.97
2023-03-01T10:13:45.989Z,8.97
2023-03-01T10:14:58.916Z,9.01
2023-03-01T10:16:15.519Z,9.07
2023-03-01T10:17:35.372Z,9.08
2023-03-01T10:18:39.533Z,9.08
2023-03-01T10:19:47.125Z,9.11
2023-03-01T10:21:02.914Z,9.11
2023-03-01T10:22:30.724Z,9.12
2023-03-01T10:23:36.648Z,9.12
2023-03-01T10:24:38.917Z,9.14
2023-03-01T10:26:06.137Z,9.16
2023-03-01T10:27:32.082Z,9.16
2023-03-01T10:28:49.535Z,9.19
2023-03-01T10:30:22.212Z,9.21
2023-03-01T10:31:31.052Z,9.24
2023-03-01T10:32:33.827Z,9.25
2023-03-01T10:33:40.672Z,9.30
2023-03-01T10:34:42.930Z,9.32
2023-03-01T10:35:45.347Z,9.37
2023-03-01T10:36:58.362Z,9.38
2023-03-01T10:38:07.884Z,9.41
2023-03-01T10:39:17.591Z,9.43
2023-03-01T10:40:20.083Z,9.45
2023-03-01T10:41:27.156Z,9.46
2023-03-01T10:42:32.983Z,9.47
2023-03-01T10:43:56.990Z,9.49
2023-03-01T10:45:15.172Z,9.48
2023-03-01T10:46:33.361Z,9.48
2023-03-01T10:47:36.900Z,9.47
2023-03-01T10:48:39.042Z,9.47
2023-03-01T10:49:53.731Z,9.46
2023-03-01T10:50:58.604Z,9.44
2023-03-01T10:52:18.868Z,9.44
2023-03-01T10:53:35.289Z,9.44
2023-03-01T10:54:37.681Z,9.42
2023-03-01T10:55:41.305Z,9.43
2023-03-01T10:56:57.080Z,9.45
2023-03-01T10:58:11.780Z,9.45
2023-03-01T10:59:28.049Z,9.45
2023-03-01T11:00:30.310Z,9.46
2023-03-01T11:01:36.766Z,9.48
2023-03-01T11:02:39.105Z,9.47
2023-03-01T11:03:41.479Z,9.48
2023-03-01T11:05:03.271Z,9.49
2023-03-01T11:06:22.145Z,9.48
2023-03-01T11:07:24.308Z,9.49
2023-03-01T11:08:41.439Z,9.51
2023-03-01T11:09:44.200Z,9.49
2023-03-01T11:10:46.355Z,9.48
2023-03-01T11:12:01.789Z,9.47
2023-03-01T11:13:15.569Z,9.46
2023-03-01T11:14:29.558Z,9.43
2023-03-01T11:15:32.033Z,9.40
2023-03-01T11:16:37.456Z,9.38
2023-03-01T11:17:54.482Z,9.38
2023-03-01T11:19:19.056Z,9.40
2023-03-01T11:20:31.745Z,9.38
2023-03-01T11:21:35.933Z,9.39
2023-03-01T11:22:46.658Z,9.39
2023-03-01T11:23:51.103Z,9.38
2023-03-01T11:25:08.911Z,9.41
2023-03-01T11:26:14.188Z,9.39
2023-03-01T11:27:29.546Z,9.40
2023-03-01T11:28:34.055Z,9.38
2023-03-01T11:29:49.174Z,9.38
2023-03-01T11:31:08.729Z,9.40
2023-03-01T11:32:15.292Z,9.37
2023-03-01T11:33:43.852Z,9.38
2023-03-01T11:34:54.499Z,9.35
2023-03-01T11:36:05.494Z,9.31
2023-03-01T11:37:25.933Z,9.28
2023-03-01T11:38:32.089Z,9.25
2023-03-01T11:39:43.570Z,9.21
2023-03-01T11:40:56.100Z,9.16
2023-03-01T11:42:19.641Z,9.13
2023-03-01T11:43:32.906Z,9.06
2023-03-01T11:44:39.127Z,9.01
2023-03-01T11:46:11.922Z,8.93
2023-03-01T11:47:45.327Z,8.87
2023-03-01T11:49:27.458Z,8.78
2023-03-01T11:50:42.476Z,8.70
2023-03-01T11:51:54.908Z,8.62
2023-03-01T11:53:29.086Z,8.54
2023-03-01T11:54:57.379Z,8.46
2023-03-01T11:56:25.250Z,8.39
2023-03-01T11:57:42.731Z,8.31
2023-03-01T11:59:24.533Z,8.23
2023-03-01T12:01:05.299Z,8.17
2023-03-01T12:02:47.662Z,8.11
2023-03-01T12:04:08.771Z,8.03
2023-03-01T12:05:31.645Z,7.93
2023-03-01T12:07:06.313Z,7.87
2023-03-01T12:08:55.800Z,7.81
2023-03-01T12:10:23.059Z,7.72
2023-03-01T12:11:46.005Z,7.65
2023-03-01T12:13:38.687Z,7.55
2023-03-01T12:15:00.479Z,7.47
2023-03-01T12:16:17.611Z,7.43
2023-03-01T12:17:45.452Z,7.34
2023-03-01T12:18:50.297Z,7.28
2023-03-01T12:20:23.445Z,7.23
2023-03-01T12:22:00.457Z,7.12
2023-03-01T12:23:27.944Z,7.02
2023-03-01T12:24:57.848Z,6.96
2023-03-01T12:26:06.792Z,6.89
2023-03-01T12:27:40.217Z,6.82
2023-03-01T12:28:53.158Z,6.75
2023-03-01T12:30:10.782Z,6.70
2023-03-01T12:31:35.929Z,6.60
2023-03-01T12:32:56.830Z,6.51
2023-03-01T12:34:20.889Z,6.43
2023-03-01T12:35:32.748Z,6.34
2023-03-01T12:37:03.731Z,6.29
2023-03-01T12:38:27.012Z,6.24
2023-03-01T12:40:05.846Z,6.18
2023-03-01T12:41:44.860Z,6.12
2023-03-01T12:43:15.443Z,6.06
2023-03-01T12:44:44.870Z,6.01
2023-03-01T12:46:20.474Z,5.95
2023-03-01T12:47:45.965Z,5.90
2023-03-01T12:49:05.659Z,5.86
2023-03-01T12:50:20.943Z,5.81
2023-03-01T12:51:30.298Z,5.76
2023-03-01T12:52:50.630Z,5.71
2023-03-01T12:53:57.156Z,5.64
2023-03-01T12:55:04.058Z,5.57
2023-03-01T12:56:22.605Z,5.50
2023-03-01T12:57:39.332Z,5.50
2023-03-01T12:59:05.799Z,5.41
2023-03-01T13:00:29.413Z,5.39
2023-03-01T13:01:50.223Z,5.36
2023-03-01T13:03:21.996Z,5.30
2023-03-01T13:04:26.920Z,5.30
2023-03-01T13:06:09.484Z,5.26
2023-03-01T13:07:42.489Z,5.25
2023-03-01T13:09:13.697Z,5.22
2023-03-01T13:10:22.244Z,5.22
2023-03-01T13:11:25.126Z,5.21
2023-03-01T13:12:50.586Z,5.17
2023-03-01T13:14:12.908Z,5.16
2023-03-01T13:15:24.241Z,5.15
2023-03-01T13:16:30.540Z,5.15
2023-03-01T13:17:43.003Z,5.15
2023-03-01T13:18:46.493Z,5.14
2023-03-01T13:19:59.302Z,5.12
2023-03-01T13:21:02.843Z,5.12
2023-03-01T13:22:29.189Z,5.12
2023-03-01T13:23:38.523Z,5.10
2023-03-01T13:24:42.582Z,5.09
2023-03-01T13:26:00.091Z,5.09
2023-03-01T13:27:09.368Z,5.11
2023-03-01T13:28:32.976Z,5.10
2023-03-01T13:29:47.495Z,5.11
2023-03-01T13:30:49.728Z,5.14
2023-03-01T13:31:51.910Z,5.14
2023-03-01T13:33:29.245Z,5.08
2023-03-01T13:34:42.518Z,5.07
2023-03-01T13:35:45.719Z,5.08
2023-03-01T13:36:50.667Z,5.09
2023-03-01T13:37:52.938Z,5.08
2023-03-01T13:38:55.123Z,5.08
2023-03-01T13:40:05.877Z,5.10
2023-03-01T13:41:09.232Z,5.07
2023-03-01T13:42:59.410Z,5.08
2023-03-01T13:44:27.934Z,5.07
2023-03-01T13:45:44.308Z,5.07
2023-03-01T13:46:47.429Z,5.06
2023-03-01T13:48:00.053Z,5.05
2023-03-01T13:49:02.378Z,5.02
2023-03-01T13:50:05.412Z,4.99
2023-03-01T13:51:13.006Z,5.01
2023-03-01T13:52:40.529Z,4.99
2023-03-01T13:53:48.425Z,4.99
2023-03-01T13:54:51.366Z,5.00
2023-03-01T13:56:01.797Z,4.99
2023-03-01T13:57:04.430Z,4.97
2023-03-01T13:58:16.795Z,4.98
2023-03-01T13:59:22.207Z,4.97
2023-03-01T14:00:37.095Z,4.96
2023-03-01T14:01:40.213Z,4.98
2023-03-01T14:02:45.004Z,4.98
2023-03-01T14:03:47.570Z,4.98
2023-03-01T14:05:01.373Z,4.97
2023-03-01T14:06:20.841Z,4.97
2023-03-01T14:07:30.554Z,4.99
2023-03-01T14:08:33.203Z,4.97
2023-03-01T14:09:41.877Z,4.97
2023-03-01T14:10:55.213Z,4.97
2023-03-01T14:12:10.556Z,4.95
2023-03-01T14:13:50.878Z,4.96
2023-03-01T14:15:21.352Z,4.97
2023-03-01T14:16:51.187Z,4.96
2023-03-01T14:18:05.466Z,4.95
2023-03-01T14:19:32.585Z,4.89
2023-03-01T14:20:42.394Z,4.88
2023-03-01T14:21:44.737Z,4.87
2023-03-01T14:22:48.743Z,4.87
2023-03-01T14:23:50.868Z,4.84
2023-03-01T14:24:57.269Z,4.85
2023-03-01T14:25:59.470Z,4.84
2023-03-01T14:27:04.616Z,4.84
2023-03-01T14:28:29.623Z,4.86
2023-03-01T14:29:38.014Z,4.84
2023-03-01T14:30:44.416Z,4.86
2023-03-01T14:31:53.451Z,4.86
2023-03-01T14:33:02.581Z,4.87
2023-03-01T14:34:06.089Z,4.88
2023-03-01T14:35:27.348Z,4.88
2023-03-01T14:36:32.479Z,4.88
2023-03-01T14:37:35.720Z,4.90
2023-03-01T14:38:39.078Z,4.89
2023-03-01T14:39:41.288Z,4.90
2023-03-01T14:40:43.631Z,4.91
2023-03-01T14:41:46.632Z,4.90
2023-03-01T14:42:48.962Z,4.91
2023-03-01T14:44:02.690Z,4.91
2023-03-01T14:45:07.160Z,4.91